Time;durP1;ratioP1;P1;durP2;ratioP2;P2;SDS_P1;SDS_P2;PMS_P1;PMS_P2;Temp;Humidity;BMP_temperature;BMP_pressure;BME280_temperature;BME280_humidity;BME280_pressure;Samples;Min_cycle;Max_cycle;Signal;HPM_P1;HPM_P2
2022/01/21 00:01:42;;;;;;;5.00;2.10;;;;;;;-0.56;76.30;100644.34;4501395;31;20096;-73
2022/01/21 00:04:10;;;;;;;13.18;3.03;;;;;;;-0.50;76.46;100647.16;4501484;31;20453;-73
2022/01/21 00:06:38;;;;;;;10.45;2.55;;;;;;;-0.39;75.36;100647.56;4501583;31;20130;-73
2022/01/21 00:09:06;;;;;;;7.65;2.70;;;;;;;-0.28;74.73;100641.06;4501471;31;20533;-73
2022/01/21 00:11:36;;;;;;;9.30;2.95;;;;;;;-0.27;74.79;100637.66;4501450;31;20103;-73
2022/01/21 00:14:03;;;;;;;7.50;3.20;;;;;;;-0.40;74.99;100637.16;4501322;31;20181;-73
2022/01/21 00:16:30;;;;;;;10.32;2.90;;;;;;;-0.34;74.89;100648.59;4501461;31;20104;-73
2022/01/21 00:19:13;;;;;;;5.25;2.58;;;;;;;-0.25;74.74;100648.94;4501329;31;20419;-73
2022/01/21 00:30:12;;;;;;;3.67;1.60;;;;;;;-0.16;73.99;100663.03;4501424;31;20591;-73
2022/01/21 00:32:45;;;;;;;3.00;1.70;;;;;;;-0.23;73.92;100674.00;4501400;31;20079;-73
2022/01/21 00:35:14;;;;;;;4.37;1.58;;;;;;;-0.16;73.01;100674.28;4501533;31;20080;-73
2022/01/21 00:37:41;;;;;;;3.47;1.52;;;;;;;-0.17;74.37;100659.56;4501537;31;20132;-73
2022/01/21 00:40:13;;;;;;;2.58;1.58;;;;;;;-0.11;73.77;100656.31;4501110;31;20507;-73
2022/01/21 00:42:50;;;;;;;11.77;2.03;;;;;;;-0.01;72.82;100645.44;4501166;31;20076;-73
2022/01/21 00:45:19;;;;;;;4.12;1.58;;;;;;;-0.18;73.29;100652.59;4500776;31;20122;-73
2022/01/21 00:47:48;;;;;;;2.55;1.25;;;;;;;0.02;72.50;100639.50;4500836;31;20100;-73
2022/01/21 00:50:16;;;;;;;5.00;1.30;;;;;;;-0.12;72.63;100637.28;4500910;31;20399;-73
2022/01/21 00:52:43;;;;;;;3.62;1.12;;;;;;;-0.23;72.92;100638.62;4500873;31;20556;-73
2022/01/21 00:55:11;;;;;;;4.62;1.35;;;;;;;-0.33;73.34;100631.34;4500815;31;20116;-73
2022/01/21 00:57:38;;;;;;;1.65;1.17;;;;;;;-0.32;73.03;100635.69;4500876;31;20154;-73
2022/01/21 01:00:09;;;;;;;3.08;1.33;;;;;;;-0.55;74.15;100648.69;4500831;31;20088;-73
2022/01/21 01:02:37;;;;;;;3.90;1.62;;;;;;;-0.55;74.45;100669.41;4501045;31;20113;-73
2022/01/21 01:05:07;;;;;;;2.10;1.45;;;;;;;-0.52;74.65;100666.94;4500720;31;20104;-74
2022/01/21 01:07:34;;;;;;;3.33;1.60;;;;;;;-0.44;74.46;100667.22;4500845;31;20133;-73
2022/01/21 01:10:04;;;;;;;3.17;1.23;;;;;;;-0.55;74.86;100673.72;4500619;31;20088;-73
2022/01/21 01:20:43;;;;;;;8.50;0.98;;;;;;;-0.77;75.40;100664.25;4500575;31;20102;-73
2022/01/21 01:28:34;;;;;;;0.50;0.50;;;;;;;-0.87;74.77;100670.78;4500563;31;20107;-73
2022/01/21 01:31:01;;;;;;;2.67;0.93;;;;;;;-0.63;73.60;100681.19;4500344;31;20480;-73
2022/01/21 01:33:35;;;;;;;2.05;0.60;;;;;;;-0.55;73.45;100678.88;4500248;31;20467;-73
2022/01/21 01:36:06;;;;;;;1.40;0.30;;;;;;;-0.75;74.38;100678.13;4500295;31;20171;-73
2022/01/21 01:41:06;;;;;;;1.55;0.43;;;;;;;-0.59;74.03;100677.00;4499991;31;20075;-73
2022/01/21 01:49:36;;;;;;;1.73;0.40;;;;;;;-0.73;75.34;100682.53;4494680;31;20154;-73
2022/01/21 01:52:09;;;;;;;1.73;0.80;;;;;;;-0.71;75.50;100685.16;4500347;31;20490;-73
2022/01/21 01:54:41;;;;;;;1.27;0.60;;;;;;;-0.75;75.70;100693.63;4500131;31;20144;-73
2022/01/21 01:57:09;;;;;;;2.45;0.40;;;;;;;-0.62;75.52;100685.53;4499995;31;20092;-73
2022/01/21 01:59:37;;;;;;;1.08;0.30;;;;;;;-0.72;76.15;100686.00;4502368;31;20141;-73
2022/01/21 02:02:09;;;;;;;2.25;0.82;;;;;;;-0.79;77.07;100699.53;4487569;31;20076;-73
2022/01/21 02:04:37;;;;;;;0.40;0.40;;;;;;;-0.75;77.41;100701.41;4502517;31;20092;-73
2022/01/21 02:07:05;;;;;;;1.52;0.60;;;;;;;-0.70;77.50;100693.84;4502543;31;20100;-73
2022/01/21 02:09:33;;;;;;;1.33;0.45;;;;;;;-0.67;77.46;100710.38;4487671;31;20164;-73
2022/01/21 02:12:02;;;;;;;3.12;0.62;;;;;;;-0.63;77.47;100696.72;4502247;31;20583;-73
2022/01/21 02:14:33;;;;;;;3.22;0.98;;;;;;;-0.68;77.88;100700.81;4502309;31;20096;-73
2022/01/21 02:22:31;;;;;;;4.25;1.08;;;;;;;-0.58;77.85;100708.09;4502221;31;20155;-73
2022/01/21 02:25:11;;;;;;;4.43;0.93;;;;;;;-0.53;77.65;100698.84;4502262;31;20179;-73
2022/01/21 02:27:38;;;;;;;5.40;0.98;;;;;;;-0.48;77.19;100693.81;4502173;31;20083;-73
2022/01/21 02:30:07;;;;;;;1.95;0.77;;;;;;;-0.45;77.22;100687.87;4502222;31;20130;-73
2022/01/21 02:32:34;;;;;;;0.98;0.57;;;;;;;-0.49;77.39;100679.12;4501985;31;20083;-73
2022/01/21 02:35:02;;;;;;;2.62;0.60;;;;;;;-0.60;78.40;100677.81;4502135;31;20148;-73
2022/01/21 02:37:29;;;;;;;1.45;0.85;;;;;;;-0.65;79.04;100679.34;4502154;31;20490;-73
2022/01/21 02:39:56;;;;;;;3.85;0.70;;;;;;;-0.77;79.60;100670.31;4502227;31;20490;-73
2022/01/21 02:42:24;;;;;;;2.20;0.62;;;;;;;-1.03;80.84;100678.75;4501975;31;20496;-73
2022/01/21 02:44:51;;;;;;;1.73;0.70;;;;;;;-1.23;82.08;100659.88;4502051;31;20079;-73
2022/01/21 02:47:18;;;;;;;5.87;1.20;;;;;;;-1.10;81.51;100656.06;4487517;31;20129;-73
2022/01/21 02:49:45;;;;;;;0.50;0.45;;;;;;;-1.30;82.00;100645.81;4502249;31;20672;-73
2022/01/21 02:52:14;;;;;;;2.00;0.88;;;;;;;-1.34;82.07;100650.78;4502049;31;20095;-73
2022/01/21 02:54:41;;;;;;;4.57;0.70;;;;;;;-1.45;82.64;100663.28;4502017;31;20100;-73
2022/01/21 02:57:09;;;;;;;1.23;0.62;;;;;;;-1.42;82.28;100672.88;4501875;31;20163;-73
2022/01/21 02:59:37;;;;;;;2.45;0.70;;;;;;;-1.48;82.57;100676.09;4501963;31;20100;-73
2022/01/21 03:02:04;;;;;;;4.10;0.77;;;;;;;-1.48;82.49;100674.41;4502011;31;20084;-73
2022/01/21 03:06:59;;;;;;;1.60;1.08;;;;;;;-1.45;82.71;100671.94;4501841;31;20599;-73
2022/01/21 03:09:26;;;;;;;3.15;0.93;;;;;;;-1.39;82.65;100663.53;4501581;31;20108;-73
2022/01/21 03:11:54;;;;;;;2.20;0.95;;;;;;;-1.29;82.34;100685.47;4501872;31;20084;-74
2022/01/21 03:14:21;;;;;;;6.20;1.60;;;;;;;-1.24;81.96;100690.03;4501923;31;20483;-73
2022/01/21 03:16:48;;;;;;;1.00;0.68;;;;;;;-1.41;82.58;100680.69;4501796;31;20534;-73
2022/01/21 03:19:16;;;;;;;9.45;1.50;;;;;;;-1.32;82.19;100693.09;4501971;31;20112;-73
2022/01/21 03:21:43;;;;;;;3.75;0.95;;;;;;;-1.36;82.10;100691.22;4501841;31;20087;-73
2022/01/21 03:24:10;;;;;;;1.42;0.77;;;;;;;-1.25;81.53;100690.81;4501744;31;20437;-73
2022/01/21 03:26:38;;;;;;;1.62;1.00;;;;;;;-1.16;81.03;100694.63;4501781;31;20432;-73
2022/01/21 03:29:05;;;;;;;3.55;1.15;;;;;;;-1.19;81.34;100700.53;4501707;31;20087;-73
2022/01/21 03:31:34;;;;;;;1.20;0.65;;;;;;;-1.21;81.33;100705.63;4501963;31;20405;-73
2022/01/21 03:34:03;;;;;;;0.57;0.50;;;;;;;-1.11;80.66;100719.81;4501966;31;20087;-73
2022/01/21 03:36:32;;;;;;;3.05;0.88;;;;;;;-1.11;80.85;100708.59;4501885;31;20099;-73
2022/01/21 03:38:59;;;;;;;1.75;0.80;;;;;;;-1.04;80.20;100710.59;4501809;31;20100;-73
2022/01/21 03:41:28;;;;;;;2.37;0.70;;;;;;;-1.07;80.15;100716.53;4501839;31;20498;-73
2022/01/21 03:43:55;;;;;;;1.12;0.60;;;;;;;-1.09;80.13;100707.84;4501853;31;20096;-73
2022/01/21 03:46:26;;;;;;;2.90;0.88;;;;;;;-1.10;80.27;100718.13;4501779;31;20092;-73
2022/01/21 03:48:55;;;;;;;5.03;0.77;;;;;;;-1.00;79.90;100709.91;4501844;31;20164;-73
2022/01/21 03:51:22;;;;;;;1.23;0.90;;;;;;;-0.91;79.23;100712.00;4501738;31;20076;-73
2022/01/21 03:53:50;;;;;;;1.35;0.75;;;;;;;-1.04;79.18;100706.31;4501862;31;20104;-73
2022/01/21 03:56:17;;;;;;;6.25;1.42;;;;;;;-1.04;79.21;100708.91;4501706;31;20108;-73
2022/01/21 03:58:50;;;;;;;7.87;1.10;;;;;;;-0.94;78.97;100710.16;4501841;31;20100;-73
2022/01/21 04:01:18;;;;;;;0.57;0.40;;;;;;;-1.02;78.76;100698.63;4501780;31;20516;-73
2022/01/21 04:03:46;;;;;;;1.48;0.70;;;;;;;-0.97;78.55;100705.75;4501657;31;20537;-73
2022/01/21 04:06:14;;;;;;;0.62;0.50;;;;;;;-1.01;78.71;100698.69;4501456;31;20095;-73
2022/01/21 04:08:41;;;;;;;4.20;0.98;;;;;;;-1.00;79.18;100709.91;4501671;31;20523;-73
2022/01/21 04:11:09;;;;;;;1.17;0.60;;;;;;;-1.01;79.75;100697.81;4501561;31;20148;-73
2022/01/21 04:13:36;;;;;;;2.33;0.65;;;;;;;-1.10;78.68;100687.97;4501681;31;20121;-73
2022/01/21 04:16:05;;;;;;;3.20;0.75;;;;;;;-1.34;79.22;100682.72;4501619;31;20416;-73
2022/01/21 04:18:33;;;;;;;2.28;1.00;;;;;;;-1.40;78.45;100679.00;4501578;31;20493;-73
2022/01/21 04:21:01;;;;;;;2.33;1.15;;;;;;;-1.45;78.02;100683.94;4500409;31;20092;-73
2022/01/21 04:23:30;;;;;;;2.03;0.93;;;;;;;-1.62;78.37;100685.88;4501462;31;20088;-73
2022/01/21 04:25:57;;;;;;;1.90;1.00;;;;;;;-1.57;77.13;100696.38;4501592;31;20118;-73
2022/01/21 04:28:24;;;;;;;1.67;0.80;;;;;;;-1.59;76.62;100701.50;4501108;31;20104;-73
2022/01/21 04:30:51;;;;;;;4.25;1.05;;;;;;;-1.51;75.18;100709.56;4501474;31;20087;-73
2022/01/21 04:33:20;;;;;;;3.53;1.05;;;;;;;-1.57;74.85;100710.19;4501466;31;20551;-73
2022/01/21 04:35:48;;;;;;;2.90;0.98;;;;;;;-1.61;75.21;100717.75;4501268;31;20125;-73
2022/01/21 04:38:20;;;;;;;1.65;0.90;;;;;;;-1.61;74.44;100718.63;4501188;31;20122;-73
2022/01/21 04:41:02;;;;;;;5.78;1.10;;;;;;;-1.58;73.97;100723.91;4501148;31;20429;-73
2022/01/21 04:49:01;;;;;;;4.40;0.77;;;;;;;-1.65;73.90;100733.94;4501112;31;20126;-73
2022/01/21 04:51:37;;;;;;;4.00;1.10;;;;;;;-1.65;73.51;100752.91;4500892;31;20109;-73
2022/01/21 04:54:06;;;;;;;2.47;1.48;;;;;;;-1.71;73.87;100748.34;4492746;31;20100;-74
2022/01/21 04:56:33;;;;;;;9.15;1.25;;;;;;;-1.74;73.76;100755.06;4485523;31;20134;-73
2022/01/21 04:59:02;;;;;;;2.83;1.35;;;;;;;-1.80;73.99;100744.47;4485156;31;20786;-73
2022/01/21 05:01:30;;;;;;;5.37;1.20;;;;;;;-1.71;73.56;100768.13;4485501;31;20435;-73
2022/01/21 05:03:58;;;;;;;7.12;1.37;;;;;;;-1.77;73.05;100766.16;4485157;31;20122;-73
2022/01/21 05:06:25;;;;;;;2.65;1.00;;;;;;;-1.72;73.12;100766.37;4484900;31;20100;-73
2022/01/21 05:08:55;;;;;;;1.60;0.68;;;;;;;-1.69;72.88;100779.44;4485009;31;20456;-73
2022/01/21 05:11:23;;;;;;;1.30;0.47;;;;;;;-1.63;72.37;100771.91;4485021;31;20092;-73
2022/01/21 05:13:56;;;;;;;3.87;0.85;;;;;;;-1.62;71.99;100776.28;4485124;31;20720;-73
2022/01/21 05:19:01;;;;;;;2.58;1.30;;;;;;;-1.67;72.14;100769.16;4485672;31;20774;-73
2022/01/21 05:21:29;;;;;;;1.25;0.90;;;;;;;-1.73;72.25;100777.53;4483389;31;20080;-73
2022/01/21 05:23:57;;;;;;;4.40;1.05;;;;;;;-1.79;71.83;100788.47;4484177;31;20439;-72
2022/01/21 05:26:25;;;;;;;6.53;1.15;;;;;;;-1.71;71.53;100773.28;4484563;31;20130;-73
2022/01/21 05:28:53;;;;;;;3.62;1.70;;;;;;;-1.79;71.26;100775.56;4484302;31;20104;-73
2022/01/21 05:31:20;;;;;;;3.85;1.10;;;;;;;-1.72;70.91;100762.09;4484484;31;20088;-73
2022/01/21 05:33:48;;;;;;;11.07;1.85;;;;;;;-1.79;70.59;100785.00;4486819;31;20099;-73
2022/01/21 05:36:16;;;;;;;2.17;1.42;;;;;;;-1.79;70.57;100785.00;4486565;31;20198;-73
2022/01/21 05:38:46;;;;;;;4.15;1.45;;;;;;;-1.85;70.75;100769.22;4486972;31;20454;-73
2022/01/21 05:41:14;;;;;;;9.00;1.65;;;;;;;-1.85;70.89;100779.56;4486808;31;20115;-73
2022/01/21 05:43:45;;;;;;;1.40;1.05;;;;;;;-1.85;71.03;100779.56;4486531;31;20104;-73
2022/01/21 05:46:29;;;;;;;2.37;1.27;;;;;;;-1.90;71.35;100781.06;4486844;31;20095;-73
2022/01/21 05:48:57;;;;;;;2.55;0.80;;;;;;;-1.90;71.35;100781.94;4486663;31;20516;-73
2022/01/21 05:51:26;;;;;;;5.25;1.50;;;;;;;-1.96;71.66;100798.03;4486370;31;20125;-72
2022/01/21 05:53:54;;;;;;;3.58;1.15;;;;;;;-1.99;71.83;100807.34;4486528;31;20114;-73
2022/01/21 05:56:24;;;;;;;4.30;1.70;;;;;;;-1.99;71.86;100815.97;4486434;31;20093;-73
2022/01/21 05:58:52;;;;;;;4.85;1.62;;;;;;;-2.14;72.84;100825.59;4486436;31;20088;-73
2022/01/21 06:01:20;;;;;;;4.82;1.27;;;;;;;-2.13;72.57;100844.56;4486395;31;20148;-73
2022/01/21 06:03:49;;;;;;;5.18;1.40;;;;;;;-2.15;72.64;100853.94;4486584;31;20096;-72
2022/01/21 06:06:16;;;;;;;3.90;1.50;;;;;;;-2.08;72.05;100862.03;4486284;31;20100;-73
2022/01/21 06:08:43;;;;;;;4.03;1.75;;;;;;;-2.08;72.22;100853.41;4486385;31;20497;-73
2022/01/21 06:11:11;;;;;;;4.07;1.92;;;;;;;-2.19;72.70;100870.97;4486290;31;20084;-73
2022/01/21 06:13:39;;;;;;;3.08;1.30;;;;;;;-2.25;72.95;100875.84;4485997;31;20091;-73
2022/01/21 06:16:06;;;;;;;4.53;1.27;;;;;;;-2.27;72.97;100873.19;4486266;31;20126;-73
2022/01/21 06:18:34;;;;;;;3.62;1.65;;;;;;;-2.32;72.97;100890.16;4486308;31;20100;-72
2022/01/21 06:21:01;;;;;;;5.62;1.30;;;;;;;-2.30;72.93;100882.47;4485520;31;20115;-72
2022/01/21 06:23:28;;;;;;;12.40;1.73;;;;;;;-2.29;72.91;100894.59;4494534;31;20084;-72
2022/01/21 06:25:55;;;;;;;3.42;1.48;;;;;;;-2.31;73.00;100891.03;4493974;31;20476;-72
2022/01/21 06:28:24;;;;;;;3.80;1.62;;;;;;;-2.23;72.74;100898.31;4486000;31;20470;-72
2022/01/21 06:30:52;;;;;;;3.47;1.40;;;;;;;-2.35;73.45;100915.81;4496043;31;20142;-73
2022/01/21 06:33:20;;;;;;;4.82;1.55;;;;;;;-2.38;73.45;100910.50;4492625;31;20088;-72
2022/01/21 06:35:49;;;;;;;3.78;1.37;;;;;;;-2.30;73.25;100913.44;4494617;31;20954;-72
2022/01/21 06:38:18;;;;;;;4.50;1.92;;;;;;;-2.35;73.31;100918.41;4484179;31;20806;-72
2022/01/21 06:40:47;;;;;;;6.28;1.98;;;;;;;-2.46;73.65;100925.63;4495797;31;20178;-73
2022/01/21 06:43:15;;;;;;;8.43;2.10;;;;;;;-2.45;73.83;100935.13;4492155;31;20813;-72
2022/01/21 06:45:43;;;;;;;3.35;2.00;;;;;;;-2.46;73.75;100942.81;4485458;31;20542;-72
2022/01/21 06:48:10;;;;;;;3.50;1.80;;;;;;;-2.53;74.21;100945.87;4501485;31;20152;-73
2022/01/21 06:50:41;;;;;;;2.75;1.67;;;;;;;-2.52;74.30;100958.84;4501889;31;20076;-73
2022/01/21 06:53:08;;;;;;;7.22;2.17;;;;;;;-2.45;73.76;100958.34;4501616;31;20767;-72
2022/01/21 06:55:37;;;;;;;4.28;1.83;;;;;;;-2.39;73.57;100959.47;4502268;31;20183;-72
2022/01/21 06:58:05;;;;;;;8.52;3.40;;;;;;;-2.32;72.68;100962.44;4501595;31;20091;-73
2022/01/21 07:00:32;;;;;;;6.53;2.28;;;;;;;-2.42;73.33;100963.66;4498102;31;20393;-72
2022/01/21 07:03:00;;;;;;;6.50;1.98;;;;;;;-2.38;73.24;100972.44;4493286;31;20088;-72
2022/01/21 07:05:30;;;;;;;7.90;2.45;;;;;;;-2.34;72.67;100983.81;4486587;31;20100;-72
2022/01/21 07:07:59;;;;;;;6.03;1.98;;;;;;;-2.30;72.53;100988.28;4486740;31;20766;-74
2022/01/21 07:10:27;;;;;;;7.85;1.62;;;;;;;-2.21;72.29;100997.38;4486704;31;20148;-74
2022/01/21 07:12:54;;;;;;;4.18;1.73;;;;;;;-2.30;72.41;101002.09;4486649;31;20722;-73
2022/01/21 07:15:21;;;;;;;7.00;2.00;;;;;;;-2.21;72.04;101002.56;4486668;31;20609;-73
2022/01/21 07:17:52;;;;;;;5.68;1.92;;;;;;;-2.19;72.16;101003.53;4486608;31;20088;-73
2022/01/21 07:20:20;;;;;;;9.27;2.12;;;;;;;-1.94;70.85;101013.34;4486796;31;20068;-73
2022/01/21 07:22:47;;;;;;;3.50;1.50;;;;;;;-1.77;70.57;101011.56;4489625;31;20096;-74
2022/01/21 07:25:15;;;;;;;19.25;2.37;;;;;;;-1.62;69.46;101011.41;4500771;31;20103;-73
2022/01/21 07:27:47;;;;;;;3.47;1.23;;;;;;;-1.54;69.51;101017.81;4502575;31;20087;-73
2022/01/21 07:30:15;;;;;;;8.65;2.10;;;;;;;-1.46;68.69;101019.06;4502463;31;20088;-73
2022/01/21 07:32:43;;;;;;;3.97;1.33;;;;;;;-1.39;68.75;100993.50;4502408;31;20151;-73
2022/01/21 07:35:11;;;;;;;4.00;1.33;;;;;;;-1.36;67.95;101002.28;4491655;31;20121;-72
2022/01/21 07:37:59;;;;;;;2.75;1.83;;;;;;;-1.28;67.81;101007.81;4485945;31;20127;-72
2022/01/21 07:40:27;;;;;;;5.75;2.03;;;;;;;-1.17;67.69;101010.88;4486177;31;20776;-72
2022/01/21 07:42:54;;;;;;;2.78;1.73;;;;;;;-1.21;67.95;101009.84;4486244;31;20145;-72
2022/01/21 07:45:21;;;;;;;4.97;2.05;;;;;;;-1.13;67.76;100998.16;4485700;31;20089;-73
2022/01/21 07:47:48;;;;;;;8.85;2.33;;;;;;;-1.08;68.05;100998.38;4486048;31;20122;-72
2022/01/21 07:50:16;;;;;;;9.30;2.33;;;;;;;-0.96;67.39;100992.03;4486404;31;20115;-72
2022/01/21 07:52:43;;;;;;;8.38;2.42;;;;;;;-0.83;67.08;100998.63;4486405;31;20187;-71
2022/01/21 07:55:10;;;;;;;12.70;2.15;;;;;;;-0.89;66.71;101016.47;4471241;31;20771;-72
2022/01/21 07:57:39;;;;;;;6.05;1.77;;;;;;;-0.85;66.49;101013.22;4486398;31;20141;-73
2022/01/21 08:00:08;;;;;;;4.65;1.37;;;;;;;-0.95;66.77;101016.22;4488440;31;20482;-72
2022/01/21 08:02:39;;;;;;;6.30;2.37;;;;;;;-1.02;66.66;101015.06;4490923;31;20131;-73
2022/01/21 08:05:07;;;;;;;4.85;2.50;;;;;;;-0.96;66.66;101006.66;4489888;31;20161;-72
2022/01/21 08:07:34;;;;;;;7.22;2.00;;;;;;;-1.01;67.09;101003.00;4501542;31;20119;-72
2022/01/21 08:10:02;;;;;;;2.80;1.33;;;;;;;-1.02;66.22;101011.59;4501910;31;20113;-72
2022/01/21 08:12:30;;;;;;;11.38;2.75;;;;;;;-1.05;65.70;100996.81;4501851;31;20148;-72
2022/01/21 08:14:57;;;;;;;7.43;1.90;;;;;;;-1.33;66.39;100996.37;4501435;31;20093;-73
2022/01/21 08:17:24;;;;;;;2.53;0.85;;;;;;;-1.32;65.80;100986.09;4497267;31;20103;-73
2022/01/21 08:19:51;;;;;;;5.22;1.60;;;;;;;-1.29;65.40;101003.44;4502038;31;20110;-73
2022/01/21 08:22:20;;;;;;;3.97;1.17;;;;;;;-1.31;64.48;100986.97;4501406;31;20083;-72
2022/01/21 08:24:48;;;;;;;20.42;4.43;;;;;;;-1.39;63.95;100984.03;4497275;31;20092;-73
2022/01/21 08:27:16;;;;;;;19.33;5.75;;;;;;;-1.36;64.06;100983.31;4478116;31;20103;-72
2022/01/21 08:29:43;;;;;;;5.50;2.30;;;;;;;-1.15;62.17;100985.97;4493814;31;20092;-72
2022/01/21 08:32:11;;;;;;;10.88;2.67;;;;;;;-1.07;60.27;100982.03;4493097;31;20096;-72
2022/01/21 08:34:39;;;;;;;32.13;8.40;;;;;;;-1.19;60.69;100986.66;4492647;31;20127;-72
2022/01/21 08:37:06;;;;;;;1.90;0.82;;;;;;;-1.17;61.85;100988.47;4493793;31;20623;-72
2022/01/21 08:39:34;;;;;;;11.48;3.20;;;;;;;-1.15;61.33;100997.19;4494003;31;20140;-73
2022/01/21 08:42:03;;;;;;;14.23;4.10;;;;;;;-1.03;60.62;100995.16;4491915;31;20799;-72
2022/01/21 08:44:31;;;;;;;7.45;2.58;;;;;;;-1.00;60.39;100986.66;4492876;31;20164;-71
2022/01/21 08:46:58;;;;;;;6.05;1.95;;;;;;;-0.96;59.59;100999.78;4494362;31;20111;-72
2022/01/21 08:49:41;;;;;;;8.05;2.30;;;;;;;-0.94;60.15;101017.09;4489405;31;20736;-74
2022/01/21 08:52:18;;;;;;;3.25;0.88;;;;;;;-0.91;59.52;101002.59;4493125;31;20096;-73
2022/01/21 08:54:49;;;;;;;18.05;1.30;;;;;;;-0.85;59.07;101012.31;4491942;31;20180;-73
2022/01/21 08:57:17;;;;;;;5.97;1.90;;;;;;;-0.80;59.60;101026.34;4489802;31;20115;-73
2022/01/21 08:59:46;;;;;;;0.90;0.75;;;;;;;-0.86;59.34;101024.34;4487899;31;20153;-72
2022/01/21 09:02:13;;;;;;;1.40;0.75;;;;;;;-0.84;59.12;101027.03;4501602;31;20148;-70
2022/01/21 09:04:40;;;;;;;0.93;0.60;;;;;;;-0.76;59.42;101018.78;4501299;31;20491;-72
2022/01/21 09:07:08;;;;;;;3.20;1.02;;;;;;;-0.66;58.93;101021.78;4501980;31;20107;-72
2022/01/21 09:09:35;;;;;;;10.88;1.30;;;;;;;-0.65;58.70;101031.31;4503478;31;20080;-71
2022/01/21 09:12:03;;;;;;;1.25;0.73;;;;;;;-0.61;58.11;101034.09;4503452;31;20546;-70
2022/01/21 09:14:31;;;;;;;6.80;1.80;;;;;;;-0.72;57.49;101045.69;4503329;31;20092;-72
2022/01/21 09:16:58;;;;;;;1.85;0.70;;;;;;;-0.63;57.54;101043.50;4503609;31;20100;-71
2022/01/21 09:19:26;;;;;;;3.60;0.80;;;;;;;-0.47;57.94;101057.97;4503509;31;20144;-71
2022/01/21 09:21:55;;;;;;;1.23;0.85;;;;;;;-0.34;56.52;101047.34;4503436;31;20456;-73
2022/01/21 09:24:23;;;;;;;1.80;0.80;;;;;;;-0.30;56.64;101038.00;4503486;31;20863;-72
2022/01/21 09:26:50;;;;;;;5.85;0.93;;;;;;;-0.22;56.32;101066.81;4491363;31;20126;-71
2022/01/21 09:29:17;;;;;;;1.55;0.57;;;;;;;-0.16;56.54;101047.22;4491827;31;20088;-71
2022/01/21 09:31:45;;;;;;;1.02;0.52;;;;;;;-0.24;56.13;101064.16;4496902;31;20757;-72
2022/01/21 09:34:23;;;;;;;1.95;0.60;;;;;;;-0.26;55.78;101056.31;4494494;31;20103;-72
2022/01/21 09:36:55;;;;;;;4.60;0.40;;;;;;;-0.37;56.22;101036.84;4496194;31;20134;-72
2022/01/21 09:39:23;;;;;;;0.43;0.43;;;;;;;-0.22;55.28;101041.78;4479897;31;20168;-72
2022/01/21 09:41:55;;;;;;;1.23;0.50;;;;;;;-0.13;55.25;101034.41;4480420;31;20169;-71
2022/01/21 09:44:22;;;;;;;0.82;0.32;;;;;;;-0.05;54.76;101042.50;4496495;31;20119;-70
2022/01/21 09:46:51;;;;;;;2.45;0.75;;;;;;;-0.02;55.12;101035.72;4503099;31;20100;-71
2022/01/21 09:49:26;;;;;;;3.00;0.95;;;;;;;0.11;55.60;101067.34;4495509;31;20167;-71
2022/01/21 09:51:59;;;;;;;0.22;0.20;;;;;;;-0.04;55.23;101052.91;4491164;31;20729;-71
2022/01/21 09:54:32;;;;;;;2.67;0.50;;;;;;;-0.02;54.98;101047.81;4503139;31;20119;-71
2022/01/21 09:57:00;;;;;;;1.83;0.30;;;;;;;-0.19;54.98;101044.50;4497831;31;20112;-71
2022/01/21 09:59:30;;;;;;;0.75;0.65;;;;;;;0.04;55.46;101039.41;4494051;31;20088;-70
2022/01/21 10:02:00;;;;;;;0.85;0.80;;;;;;;0.19;54.58;101053.00;4494510;31;20115;-70
2022/01/21 10:04:32;;;;;;;4.55;0.93;;;;;;;0.22;55.15;101046.22;4501940;31;20171;-70
2022/01/21 10:07:01;;;;;;;1.95;0.40;;;;;;;0.42;55.62;101047.00;4502717;31;20156;-71
2022/01/21 10:09:29;;;;;;;3.87;0.77;;;;;;;0.65;54.78;101039.25;4502991;31;20155;-71
2022/01/21 10:11:58;;;;;;;0.32;0.32;;;;;;;0.62;54.91;101033.94;4502523;31;20914;-70
2022/01/21 10:14:29;;;;;;;5.20;0.80;;;;;;;0.78;54.82;101045.78;4502795;31;20118;-71
2022/01/21 10:16:58;;;;;;;1.23;0.65;;;;;;;1.07;54.17;101058.16;4500942;31;20176;-71
2022/01/21 10:19:28;;;;;;;3.90;1.00;;;;;;;1.14;53.88;101039.38;4488248;31;20167;-71
2022/01/21 10:22:06;;;;;;;2.95;0.45;;;;;;;1.47;53.30;101035.34;4493599;31;20204;-71
2022/01/21 10:24:34;;;;;;;;;;;;;;;1.77;52.15;101041.63;4486409;31;20089;-72
2022/01/21 10:27:02;;;;;;;5.90;1.15;;;;;;;1.68;52.28;101043.87;4486487;31;19995;-72
2022/01/21 10:29:42;;;;;;;1.67;0.85;;;;;;;1.69;51.88;101050.84;4486739;31;20087;-70
2022/01/21 10:32:09;;;;;;;11.75;1.00;;;;;;;1.77;52.04;101031.22;4486762;31;20151;-71
2022/01/21 10:34:38;;;;;;;6.47;0.68;;;;;;;1.71;53.04;101037.91;4486955;31;20096;-71
2022/01/21 10:37:27;;;;;;;4.95;1.33;;;;;;;1.70;52.64;101057.81;4502368;31;20497;-71
2022/01/21 10:40:01;;;;;;;4.72;0.73;;;;;;;2.24;51.68;101041.44;4502715;31;20095;-71
2022/01/21 10:42:30;;;;;;;5.57;0.90;;;;;;;2.69;51.13;101043.72;4496049;31;20151;-71
2022/01/21 10:44:59;;;;;;;5.60;1.23;;;;;;;2.28;51.54;101053.69;4491366;31;20105;-72
2022/01/21 10:47:30;;;;;;;1.87;1.08;;;;;;;1.80;52.42;101057.31;4496001;31;20134;-71
2022/01/21 10:50:13;;;;;;;7.53;1.10;;;;;;;1.51;53.61;101063.19;4493566;31;20148;-72
2022/01/21 10:52:45;;;;;;;4.45;1.08;;;;;;;1.35;53.72;101066.97;4493594;31;20084;-72
2022/01/21 10:55:33;;;;;;;3.20;0.88;;;;;;;1.03;55.45;101058.88;4490932;31;20096;-71
2022/01/21 10:58:07;;;;;;;3.00;1.10;;;;;;;0.87;55.06;101060.00;4495203;31;20107;-71
2022/01/21 11:00:35;;;;;;;10.98;1.35;;;;;;;0.74;55.98;101062.94;4477364;31;20080;-72
2022/01/21 11:03:12;;;;;;;3.40;1.67;;;;;;;0.69;56.34;101065.34;4495277;31;20115;-70
2022/01/21 11:05:47;;;;;;;3.60;1.33;;;;;;;0.45;56.77;101054.91;4493200;31;20163;-71
2022/01/21 11:08:15;;;;;;;1.27;1.02;;;;;;;0.37;57.52;101050.25;4487971;31;20126;-71
2022/01/21 11:10:45;;;;;;;2.97;1.20;;;;;;;0.63;57.30;101053.84;4489562;31;20084;-70
2022/01/21 11:13:12;;;;;;;8.90;0.73;;;;;;;0.74;56.94;101051.69;4501746;31;20114;-70
2022/01/21 11:15:44;;;;;;;6.55;1.50;;;;;;;1.01;56.45;101037.16;4502835;31;20138;-70
2022/01/21 11:18:15;;;;;;;3.65;1.23;;;;;;;1.45;55.32;101050.87;4494959;31;20547;-70
2022/01/21 11:20:46;;;;;;;1.70;1.12;;;;;;;2.03;53.14;101041.59;4491415;31;20698;-70
2022/01/21 11:23:15;;;;;;;3.55;1.45;;;;;;;2.05;53.11;101039.91;4496141;31;20076;-71
2022/01/21 11:25:46;;;;;;;3.00;1.67;;;;;;;2.14;53.17;101038.50;4502111;31;20559;-70
2022/01/21 11:28:17;;;;;;;13.80;1.40;;;;;;;2.84;51.63;101036.34;4502199;31;20182;-70
2022/01/21 11:30:45;;;;;;;2.00;1.25;;;;;;;2.49;51.67;101025.75;4502069;31;20433;-71
2022/01/21 11:33:12;;;;;;;6.47;1.52;;;;;;;2.37;52.64;101025.38;4498694;31;20095;-70
2022/01/21 11:35:40;;;;;;;3.08;1.40;;;;;;;2.44;51.94;101016.03;4501288;31;20107;-71
2022/01/21 11:38:10;;;;;;;5.15;1.90;;;;;;;2.61;51.85;101027.84;4501318;31;20141;-71
2022/01/21 11:40:38;;;;;;;4.00;0.90;;;;;;;3.05;50.47;101015.28;4494431;31;20099;-71
2022/01/21 11:43:08;;;;;;;3.92;1.25;;;;;;;3.00;51.09;101014.25;4492923;31;20153;-71
2022/01/21 11:51:28;;;;;;;4.85;1.73;;;;;;;3.66;48.30;100995.22;4501018;31;20079;-70
2022/01/21 11:54:16;;;;;;;8.40;1.40;;;;;;;3.64;48.73;100992.59;4501544;31;20711;-71
2022/01/21 11:56:48;;;;;;;4.53;1.30;;;;;;;4.75;47.24;100980.41;4501819;31;20119;-70
2022/01/21 11:59:38;;;;;;;2.80;1.20;;;;;;;4.69;45.21;100985.50;4502250;31;20198;-71
2022/01/21 12:02:26;;;;;;;2.15;1.00;;;;;;;4.32;46.22;100979.47;4501509;31;20236;-71
2022/01/21 12:04:59;;;;;;;4.32;1.20;;;;;;;4.86;46.36;100978.03;4501472;31;20132;-71
2022/01/21 12:07:44;;;;;;;5.78;1.70;;;;;;;4.69;45.15;100983.75;4493973;31;20118;-71
2022/01/21 12:10:29;;;;;;;4.30;1.42;;;;;;;3.74;47.45;100970.22;4490666;31;20607;-72
2022/01/21 12:13:06;;;;;;;6.28;1.77;;;;;;;3.32;49.16;100953.56;4490747;31;20092;-71
2022/01/21 12:16:06;;;;;;;;;;;;;;;4.01;47.78;100951.78;4490453;31;20612;-70
2022/01/21 12:21:41;;;;;;;6.07;1.50;;;;;;;2.95;49.18;100954.25;4489627;31;20211;-71
2022/01/21 12:24:09;;;;;;;7.12;1.73;;;;;;;2.45;49.80;100950.19;4469827;31;20162;-71
2022/01/21 12:26:55;;;;;;;5.95;0.93;;;;;;;2.35;50.96;100962.03;4485123;31;20444;-70
2022/01/21 12:29:24;;;;;;;5.75;1.67;;;;;;;2.38;50.73;100950.00;4474131;31;20100;-71
2022/01/21 12:32:13;;;;;;;2.87;0.85;;;;;;;2.34;50.97;100952.47;4498703;31;20179;-70
2022/01/21 12:35:07;;;;;;;2.37;0.70;;;;;;;2.03;51.89;100943.72;4500846;31;20167;-70